.
WxDataArchive / Data Records for 2015-04-24
2015-04-23 April 2015 2015-04-25

Data Records for Friday, 24 April 2015

Time	Temp	Chill	HIndex	Humid	Dewpt	 Wind 	HiWind	WindDir	Rain 	Barom
-----	----	-----	------	-----	-----	------	------	-------	-----	-----
00:00	31.5	31.5	31.5	65	21.1	0	0	---	0.00	30.071 
00:05	31.5	31.5	31.5	66	21.5	0	0	---	0.00	30.071 
00:10	31.3	31.3	31.3	67	21.6	0	0	---	0.00	30.071 
00:15	31.2	31.2	31.2	67	21.5	0	0	---	0.00	30.073 
00:20	31.0	31.0	31.0	68	21.7	0	0	---	0.00	30.073 
00:25	30.9	30.9	30.9	68	21.6	0	0	---	0.00	30.073 
00:30	30.7	30.7	30.7	68	21.4	0	0	---	0.00	30.074 
00:35	30.6	30.6	30.6	69	21.7	0	0	---	0.00	30.074 
00:40	30.6	30.6	30.6	69	21.7	0	0	---	0.00	30.074 
00:45	30.4	30.4	30.4	69	21.5	0	0	---	0.00	30.075 
00:50	30.3	30.3	30.3	69	21.4	0	0	---	0.00	30.075 
00:55	30.1	30.1	30.1	70	21.5	0	0	---	0.00	30.075 
01:00	30.0	30.0	30.0	70	21.4	0	0	---	0.00	30.076 
01:05	29.8	29.8	29.8	71	21.6	0	0	---	0.00	30.076 
01:10	29.7	29.7	29.7	71	21.5	0	0	---	0.00	30.076 
01:15	29.5	29.5	29.5	72	21.6	0	0	---	0.00	30.078 
01:20	29.5	29.5	29.5	72	21.6	0	0	---	0.00	30.078 
01:25	29.4	29.4	29.4	73	21.8	0	0	---	0.00	30.078 
01:30	29.3	29.3	29.3	73	21.7	0	0	---	0.00	30.083 
01:35	29.1	29.1	29.1	73	21.5	0	0	---	0.00	30.083 
01:40	29.1	29.1	29.1	73	21.5	0	0	---	0.00	30.083 
01:45	29.0	29.0	29.0	74	21.8	0	0	---	0.00	30.085 
01:50	29.0	29.0	29.0	75	22.1	0	0	---	0.00	30.085 
01:55	29.0	29.0	29.0	75	22.1	0	0	---	0.00	30.085 
02:00	29.0	29.0	29.0	76	22.4	0	0	---	0.00	30.085 
02:05	28.8	28.8	28.8	76	22.2	0	0	---	0.00	30.085 
02:10	28.8	28.8	28.8	76	22.2	0	0	---	0.00	30.085 
02:15	28.8	28.8	28.8	76	22.2	0	0	---	0.00	30.082 
02:20	28.7	28.7	28.7	76	22.1	0	0	---	0.00	30.082 
02:25	28.5	28.5	28.5	76	21.9	0	0	---	0.00	30.082 
02:30	28.4	28.4	28.4	76	21.8	0	0	---	0.00	30.075 
02:35	28.4	28.4	28.4	77	22.1	0	0	---	0.00	30.075 
02:40	28.4	28.4	28.4	77	22.1	0	0	---	0.00	30.075 
02:45	28.4	28.4	28.4	77	22.1	0	0	---	0.00	30.074 
02:50	28.4	28.4	28.4	77	22.1	0	0	---	0.00	30.074 
02:55	28.4	28.4	28.4	77	22.1	0	0	---	0.00	30.074 
03:00	28.2	28.2	28.2	78	22.2	0	0	---	0.00	30.074 
03:05	28.2	28.2	28.2	78	22.2	0	0	---	0.00	30.074 
03:10	28.1	28.1	28.1	78	22.1	0	0	---	0.00	30.074 
03:15	27.9	27.9	27.9	78	21.9	0	0	---	0.00	30.075 
03:20	27.9	27.9	27.9	78	21.9	0	0	---	0.00	30.075 
03:25	27.8	27.8	27.8	78	21.8	0	0	---	0.00	30.075 
03:30	27.6	27.6	27.6	78	21.7	0	0	---	0.00	30.075 
03:35	27.5	27.5	27.5	78	21.6	0	0	---	0.00	30.075 
03:40	27.5	27.5	27.5	79	21.9	0	0	---	0.00	30.075 
03:45	27.5	27.5	27.5	79	21.9	0	0	---	0.00	30.076 
03:50	27.5	27.5	27.5	79	21.9	0	0	---	0.00	30.076 
03:55	27.5	27.5	27.5	79	21.9	0	0	---	0.00	30.076 
04:00	27.5	27.5	27.5	79	21.9	0	0	---	0.00	30.077 
04:05	27.5	27.5	27.5	79	21.9	0	0	---	0.00	30.077 
04:10	27.3	27.3	27.3	80	22.0	0	0	---	0.00	30.077 
04:15	27.3	27.3	27.3	80	22.0	0	0	---	0.00	30.071 
04:20	27.2	27.2	27.2	80	21.9	0	0	---	0.00	30.071 
04:25	27.2	27.2	27.2	80	21.9	0	0	---	0.00	30.071 
04:30	27.3	27.3	27.3	80	22.0	0	0	---	0.00	30.077 
04:35	27.3	27.3	27.3	80	22.0	0	0	---	0.00	30.077 
04:40	27.2	27.2	27.2	80	21.9	0	0	---	0.00	30.077 
04:45	27.2	27.2	27.2	80	21.9	0	0	---	0.00	30.083 
04:50	27.2	27.2	27.2	81	22.2	0	0	---	0.00	30.083 
04:55	27.2	27.2	27.2	80	21.9	0	0	---	0.00	30.083 
05:00	27.5	27.5	27.5	80	22.2	0	0	---	0.00	30.079 
05:05	27.6	27.6	27.6	79	22.0	0	0	---	0.00	30.079 
05:10	27.8	27.8	27.8	78	21.8	0	0	---	0.00	30.079 
05:15	27.9	27.9	27.9	78	21.9	0	0	---	0.00	30.076 
05:20	27.9	27.9	27.9	77	21.6	0	0	---	0.00	30.076 
05:25	27.9	27.9	27.9	77	21.6	0	0	---	0.00	30.076 
05:30	28.1	28.1	28.1	76	21.5	0	0	---	0.00	30.077 
05:35	28.1	28.1	28.1	76	21.5	0	0	---	0.00	30.077 
05:40	28.1	28.1	28.1	75	21.2	0	0	---	0.00	30.077 
05:45	27.9	27.9	27.9	75	21.0	0	0	---	0.00	30.076 
05:50	27.9	27.9	27.9	75	21.0	0	0	---	0.00	30.076 
05:55	27.8	27.8	27.8	75	20.9	0	0	---	0.00	30.076 
06:00	27.8	27.8	27.8	75	20.9	0	0	---	0.00	30.081 
06:05	27.6	27.6	27.6	75	20.7	0	0	---	0.00	30.081 
06:10	27.5	27.5	27.5	75	20.6	0	0	---	0.00	30.081 
06:15	27.5	27.5	27.5	76	20.9	0	0	---	0.00	30.092 
06:20	27.3	27.3	27.3	76	20.8	0	0	---	0.00	30.092 
06:25	27.2	27.2	27.2	76	20.7	0	0	---	0.00	30.092 
06:30	27.0	27.0	27.0	76	20.5	0	0	---	0.00	30.091 
06:35	27.0	27.0	27.0	76	20.5	0	0	---	0.00	30.091 
06:40	26.9	26.9	26.9	76	20.4	0	0	---	0.00	30.091 
06:45	26.7	26.7	26.7	77	20.5	0	0	---	0.00	30.093 
06:50	26.6	26.6	26.6	77	20.4	0	0	---	0.00	30.093 
06:55	26.6	26.6	26.6	77	20.4	0	0	---	0.00	30.093 
07:00	26.6	26.6	26.6	77	20.4	0	0	---	0.00	30.093 
07:05	26.4	26.4	26.4	77	20.2	0	0	---	0.00	30.093 
07:10	26.4	26.4	26.4	77	20.2	0	0	---	0.00	30.093 
07:15	26.6	26.6	26.6	78	20.7	0	0	---	0.00	30.097 
07:20	26.7	26.7	26.7	79	21.1	0	0	---	0.00	30.097 
07:25	27.0	27.0	27.0	79	21.4	0	0	---	0.00	30.097 
07:30	27.5	27.5	27.5	79	21.9	0	0	---	0.00	30.097 
07:35	27.9	27.9	27.9	78	21.9	0	0	---	0.00	30.097 
07:40	28.7	28.7	28.7	79	23.0	0	0	---	0.00	30.097 
07:45	29.5	29.5	29.5	79	23.8	0	0	---	0.00	30.100 
07:50	30.7	30.7	30.7	77	24.4	0	0	---	0.00	30.100 
07:55	31.8	31.8	31.8	77	25.4	0	0	---	0.00	30.100 
08:00	33.1	33.1	33.1	75	26.1	0	0	---	0.00	30.102 
08:05	34.7	34.7	34.7	69	25.6	0	0	---	0.00	30.102 
08:10	36.2	36.2	36.2	65	25.6	0	0	---	0.00	30.102 
08:15	37.2	37.2	37.2	62	25.4	0	0	---	0.00	30.107 
08:20	38.0	38.0	38.0	62	26.2	0	0	---	0.00	30.107 
08:25	39.3	39.3	39.3	57	25.4	0	0	---	0.00	30.107 
08:30	40.5	40.5	40.5	56	26.1	0	1	292	0.00	30.101 
08:35	41.1	41.1	41.1	52	24.8	0	1	292	0.00	30.101 
08:40	41.3	41.3	41.3	51	24.6	0	1	292	0.00	30.101 
08:45	41.6	41.6	41.6	49	23.9	0	1	292	0.00	30.102 
08:50	42.1	42.1	42.1	49	24.3	0	1	292	0.00	30.102 
08:55	42.5	42.5	42.5	50	25.2	0	1	292	0.00	30.102 
09:00	42.9	42.9	42.9	46	23.6	0	3	292	0.00	30.101 
09:05	43.3	43.3	43.3	46	23.9	0	2	292	0.00	30.101 
09:10	44.2	44.2	44.2	45	24.2	0	2	292	0.00	30.101 
09:15	44.8	44.8	44.8	45	24.8	0	1	292	0.00	30.103 
09:20	45.2	45.2	45.2	42	23.5	0	1	292	0.00	30.103 
09:25	45.8	45.8	45.8	41	23.5	0	3	292	0.00	30.103 
09:30	46.2	46.2	46.2	42	24.4	0	3	292	0.00	30.102 
09:35	46.7	46.7	46.7	44	26.0	0	1	292	0.00	30.102 
09:40	47.3	47.3	47.3	39	23.6	1	4	248	0.00	30.102 
09:45	47.6	47.6	47.6	39	23.9	1	4	248	0.00	30.099 
09:50	47.9	47.9	47.9	38	23.5	1	5	248	0.00	30.099 
09:55	48.2	48.2	48.2	39	24.4	1	3	248	0.00	30.099 
10:00	48.5	48.5	48.5	36	22.8	1	4	248	0.00	30.097 
10:05	48.9	48.9	48.9	39	25.0	0	2	248	0.00	30.097 
10:10	49.2	49.2	49.2	38	24.7	0	2	248	0.00	30.097 
10:15	49.6	49.6	49.6	37	24.4	1	3	248	0.00	30.099 
10:20	49.9	49.9	49.9	39	25.9	0	1	248	0.00	30.099 
10:25	50.4	50.4	50.4	35	23.8	0	2	248	0.00	30.099 
10:30	50.7	50.7	50.7	34	23.4	1	3	248	0.00	30.099 
10:35	51.0	51.0	51.0	36	25.0	1	3	248	0.00	30.099 
10:40	51.1	51.1	51.1	36	25.1	0	2	248	0.00	30.099 
10:45	51.7	51.7	51.7	37	26.3	0	2	248	0.00	30.096 
10:50	52.5	52.5	52.5	37	27.0	0	3	135	0.00	30.096 
10:55	52.9	52.9	52.9	34	25.3	0	1	135	0.00	30.096 
11:00	53.5	53.5	53.5	35	26.5	0	3	135	0.00	30.097 
11:05	53.6	53.6	53.6	34	25.9	0	2	135	0.00	30.097 
11:10	53.6	53.6	53.6	32	24.5	0	3	135	0.00	30.097 
11:15	53.8	53.8	53.8	32	24.6	1	3	135	0.00	30.096 
11:20	53.9	53.9	53.9	29	22.4	0	2	338	0.00	30.096 
11:25	54.1	54.1	54.1	27	20.9	1	3	338	0.00	30.096 
11:30	54.4	54.4	54.4	29	22.8	0	2	292	0.00	30.094 
11:35	54.7	54.7	54.7	28	22.2	1	5	292	0.00	30.094 
11:40	54.7	54.7	54.7	32	25.4	1	2	68	0.00	30.094 
11:45	54.8	54.8	54.8	26	20.6	1	3	68	0.00	30.083 
11:50	54.8	54.8	54.8	27	21.5	0	2	68	0.00	30.083 
11:55	54.7	54.7	54.7	25	19.6	0	3	68	0.00	30.083 
12:00	55.1	55.1	55.1	30	24.2	0	1	68	0.00	30.084 
12:05	55.7	55.7	55.7	27	22.2	0	1	68	0.00	30.084 
12:10	56.0	56.0	56.0	25	20.7	1	3	68	0.00	30.084 
12:15	56.0	56.0	56.0	25	20.7	1	4	248	0.00	30.082 
12:20	55.9	55.9	55.9	25	20.6	1	3	248	0.00	30.082 
12:25	55.9	55.9	55.9	24	19.6	1	4	248	0.00	30.082 
12:30	56.3	56.3	56.3	26	21.9	1	3	202	0.00	30.083 
12:35	56.5	56.5	56.5	24	20.2	1	4	248	0.00	30.083 
12:40	56.5	56.5	56.5	28	23.8	1	3	292	0.00	30.083 
12:45	56.6	56.6	56.6	26	22.1	1	4	292	0.00	30.075 
12:50	56.9	56.9	56.9	24	20.5	0	2	248	0.00	30.075 
12:55	57.0	57.0	57.0	24	20.6	1	3	248	0.00	30.075 
13:00	57.2	57.2	57.2	28	24.4	1	3	248	0.00	30.067 
13:05	57.3	57.3	57.3	25	21.8	1	4	248	0.00	30.067 
13:10	57.5	57.5	57.5	26	22.9	1	4	248	0.00	30.067 
13:15	57.5	57.5	57.5	24	21.0	1	4	202	0.00	30.059 
13:20	57.5	57.5	57.5	22	19.0	1	3	202	0.00	30.059 
13:25	57.8	57.8	57.8	27	24.0	0	2	202	0.00	30.059 
13:30	58.0	58.0	58.0	22	19.4	0	3	202	0.00	30.058 
13:35	58.6	58.6	58.6	31	28.1	0	4	68	0.00	30.058 
13:40	58.7	58.7	58.7	22	20.0	2	4	248	0.00	30.058 
13:45	58.7	58.7	58.7	23	21.0	1	3	248	0.00	30.045 
13:50	58.7	58.7	58.7	24	22.0	0	3	248	0.00	30.045 
13:55	58.9	58.9	58.9	20	17.9	1	3	225	0.00	30.045 
14:00	58.9	58.9	58.9	27	25.0	1	3	180	0.00	30.036 
14:05	59.2	59.2	59.2	27	25.2	1	4	248	0.00	30.036 
14:10	59.3	59.3	59.3	22	20.5	1	3	248	0.00	30.036 
14:15	59.5	59.5	59.5	26	24.6	0	2	248	0.00	30.034 
14:20	59.6	59.6	59.6	24	22.8	0	2	248	0.00	30.034 
14:25	59.5	59.5	59.5	22	20.6	1	3	248	0.00	30.034 
14:30	59.5	59.5	59.5	22	20.6	2	4	270	0.00	30.034 
14:35	59.5	59.5	59.5	24	22.7	1	4	270	0.00	30.034 
14:40	59.6	59.6	59.6	22	20.7	2	4	270	0.00	30.034 
14:45	59.5	59.5	59.5	22	20.6	1	3	270	0.00	30.033 
14:50	59.9	59.9	59.9	22	21.0	0	2	270	0.00	30.033 
14:55	59.9	59.9	59.9	23	22.0	0	2	270	0.00	30.033 
15:00	59.9	59.9	59.9	24	23.0	0	2	270	0.00	30.017 
15:05	60.2	60.2	60.2	29	27.8	1	4	292	0.00	30.017 
15:10	60.5	60.5	60.5	22	21.5	0	4	292	0.00	30.017 
15:15	60.7	60.7	60.7	23	22.7	0	3	292	0.00	30.016 
15:20	60.9	60.9	60.9	23	22.9	1	5	90	0.00	30.016 
15:25	61.3	61.3	61.3	22	22.1	0	2	90	0.00	30.016 
15:30	61.5	61.5	61.5	21	21.2	1	2	90	0.00	30.000 
15:35	61.6	61.6	61.6	25	25.4	1	3	45	0.00	30.000 
15:40	61.6	61.6	61.6	22	22.4	1	5	112	0.00	30.000 
15:45	61.6	61.6	61.6	20	20.1	1	4	112	0.00	29.986 
15:50	61.5	61.5	61.5	20	20.1	0	2	270	0.00	29.986 
15:55	61.5	61.5	61.5	21	21.2	1	3	270	0.00	29.986 
16:00	61.3	61.3	61.3	21	21.0	0	2	270	0.00	29.988 
16:05	61.6	61.6	61.6	25	25.4	0	3	270	0.00	29.988 
16:10	62.0	62.0	62.0	20	20.5	0	3	270	0.00	29.988 
16:15	61.6	61.6	61.6	20	20.1	0	3	270	0.00	29.983 
16:20	61.3	61.3	61.3	20	19.9	0	2	270	0.00	29.983 
16:25	61.3	61.3	61.3	25	25.2	1	4	68	0.00	29.983 
16:30	61.6	61.6	61.6	25	25.4	0	2	68	0.00	29.979 
16:35	61.6	61.6	61.6	21	21.3	1	4	68	0.00	29.979 
16:40	61.3	61.3	61.3	24	24.2	1	4	90	0.00	29.979 
16:45	61.3	61.3	61.3	25	25.2	0	2	112	0.00	29.971 
16:50	61.5	61.5	61.5	26	26.3	0	3	112	0.00	29.971 
16:55	61.5	61.5	61.5	21	21.2	0	2	112	0.00	29.971 
17:00	62.0	62.0	62.0	28	28.5	0	1	112	0.00	29.967 
17:05	61.8	61.8	61.8	22	22.6	0	2	112	0.00	29.967 
17:10	61.6	61.6	61.6	24	24.5	0	2	112	0.00	29.967 
17:15	61.6	61.6	61.6	21	21.3	0	1	112	0.00	29.962 
17:20	61.5	61.5	61.5	28	28.1	0	2	112	0.00	29.962 
17:25	61.5	61.5	61.5	24	24.4	0	4	248	0.00	29.962 
17:30	61.8	61.8	61.8	22	22.6	0	3	248	0.00	29.959 
17:35	61.6	61.6	61.6	23	23.4	0	1	248	0.00	29.959 
17:40	61.3	61.3	61.3	22	22.1	0	1	248	0.00	29.959 
17:45	61.0	61.0	61.0	22	21.9	0	1	248	0.00	29.961 
17:50	60.7	60.7	60.7	21	20.5	0	1	248	0.00	29.961 
17:55	60.5	60.5	60.5	22	21.5	0	5	248	0.00	29.961 
18:00	60.4	60.4	60.4	25	24.4	0	1	112	0.00	29.955 
18:05	60.2	60.2	60.2	25	24.3	0	2	112	0.00	29.955 
18:10	60.1	60.1	60.1	25	24.2	0	2	112	0.00	29.955 
18:15	60.1	60.1	60.1	22	21.1	0	1	112	0.00	29.956 
18:20	60.2	60.2	60.2	25	24.3	0	2	112	0.00	29.956 
18:25	60.1	60.1	60.1	23	22.2	0	1	112	0.00	29.956 
18:30	59.9	59.9	59.9	23	22.0	0	1	112	0.00	29.955 
18:35	59.6	59.6	59.6	22	20.7	0	1	112	0.00	29.955 
18:40	59.5	59.5	59.5	23	21.7	0	1	112	0.00	29.955 
18:45	59.5	59.5	59.5	23	21.7	0	0	---	0.00	29.956 
18:50	59.3	59.3	59.3	25	23.5	0	0	---	0.00	29.956 
18:55	59.3	59.3	59.3	23	21.5	0	1	112	0.00	29.956 
19:00	59.2	59.2	59.2	24	22.4	0	1	112	0.00	29.944 
19:05	59.0	59.0	59.0	25	23.2	0	1	112	0.00	29.944 
19:10	58.9	58.9	58.9	22	20.1	0	1	112	0.00	29.944 
19:15	58.9	58.9	58.9	22	20.1	0	1	112	0.00	29.936 
19:20	58.9	58.9	58.9	23	21.2	0	1	112	0.00	29.936 
19:25	58.7	58.7	58.7	23	21.0	0	2	112	0.00	29.936 
19:30	58.6	58.6	58.6	23	20.9	0	1	112	0.00	29.938 
19:35	58.4	58.4	58.4	26	23.7	0	1	112	0.00	29.938 
19:40	58.1	58.1	58.1	24	21.5	0	1	112	0.00	29.938 
19:45	57.8	57.8	57.8	24	21.3	0	1	112	0.00	29.943 
19:50	57.6	57.6	57.6	25	22.0	0	0	---	0.00	29.943 
19:55	57.5	57.5	57.5	26	22.9	0	0	---	0.00	29.943 
20:00	57.2	57.2	57.2	25	21.7	0	1	112	0.00	29.944 
20:05	57.2	57.2	57.2	25	21.7	0	0	---	0.00	29.944 
20:10	57.0	57.0	57.0	25	21.5	0	0	---	0.00	29.944 
20:15	57.0	57.0	57.0	25	21.5	0	1	112	0.00	29.928 
20:20	56.9	56.9	56.9	26	22.4	0	1	112	0.00	29.928 
20:25	56.7	56.7	56.7	27	23.1	0	0	---	0.00	29.928 
20:30	56.6	56.6	56.6	27	23.0	0	0	---	0.00	29.928 
20:35	56.5	56.5	56.5	28	23.8	0	0	---	0.00	29.928 
20:40	56.3	56.3	56.3	27	22.8	0	0	---	0.00	29.928 
20:45	56.2	56.2	56.2	27	22.7	0	0	---	0.00	29.918 
20:50	56.0	56.0	56.0	27	22.5	0	0	---	0.00	29.918 
20:55	55.7	55.7	55.7	28	23.1	0	0	---	0.00	29.918 
21:00	55.6	55.6	55.6	28	23.0	0	0	---	0.00	29.926 
21:05	55.4	55.4	55.4	29	23.7	0	0	---	0.00	29.926 
21:10	55.3	55.3	55.3	29	23.6	0	0	---	0.00	29.926 
21:15	55.1	55.1	55.1	30	24.2	0	0	---	0.00	29.926 
21:20	54.8	54.8	54.8	28	22.3	0	0	---	0.00	29.926 
21:25	54.8	54.8	54.8	32	25.5	0	0	---	0.00	29.926 
21:30	54.7	54.7	54.7	35	27.6	0	0	---	0.00	29.925 
21:35	54.5	54.5	54.5	33	26.0	0	0	---	0.00	29.925 
21:40	54.5	54.5	54.5	33	26.0	0	0	---	0.00	29.925 
21:45	54.7	54.7	54.7	33	26.2	0	0	---	0.00	29.918 
21:50	54.7	54.7	54.7	36	28.3	0	0	---	0.00	29.918 
21:55	54.7	54.7	54.7	34	26.9	0	0	---	0.00	29.918 
22:00	54.5	54.5	54.5	34	26.7	0	0	---	0.00	29.916 
22:05	54.4	54.4	54.4	34	26.6	0	0	---	0.00	29.916 
22:10	54.2	54.2	54.2	35	27.2	0	0	---	0.00	29.916 
22:15	54.2	54.2	54.2	36	27.8	0	0	---	0.00	29.916 
22:20	54.1	54.1	54.1	36	27.7	0	0	---	0.00	29.916 
22:25	53.9	53.9	53.9	37	28.2	0	0	---	0.00	29.916 
22:30	53.9	53.9	53.9	38	28.9	0	0	---	0.00	29.916 
22:35	53.8	53.8	53.8	37	28.1	0	0	---	0.00	29.916 
22:40	53.6	53.6	53.6	38	28.6	0	0	---	0.00	29.916 
22:45	53.5	53.5	53.5	41	30.4	0	0	---	0.00	29.913 
22:50	53.3	53.3	53.3	37	27.7	0	1	112	0.00	29.913 
22:55	53.5	53.5	53.5	36	27.2	0	1	112	0.00	29.913 
23:00	53.5	53.5	53.5	35	26.5	0	0	---	0.00	29.911 
23:05	53.6	53.6	53.6	34	25.9	0	1	112	0.00	29.911 
23:10	53.6	53.6	53.6	33	25.2	0	0	---	0.00	29.911 
23:15	53.8	53.8	53.8	35	26.8	0	0	---	0.00	29.916 
23:20	53.6	53.6	53.6	36	27.3	0	0	---	0.00	29.916 
23:25	53.5	53.5	53.5	38	28.5	0	2	112	0.00	29.916 
23:30	53.3	53.3	53.3	39	29.0	1	3	112	0.00	29.919 
23:35	53.1	53.1	53.1	41	30.0	1	6	90	0.00	29.919 
23:40	52.8	52.8	52.8	42	30.3	1	3	90	0.00	29.919 
23:45	52.5	52.5	52.5	43	30.7	1	5	90	0.00	29.905 
23:50	52.2	52.2	52.2	44	31.0	1	3	90	0.00	29.905 
23:55	51.9	51.9	51.9	45	31.2	1	5	90	0.00	29.905 

CoCoRaHS
IN-AL-39
A2 Web Hosting
Creative Commons License
GoDaddy
search engine by freefind advanced

loaded 2018-11-20 15:03:21 • last modified 2010-11-18 10:43:29
Privacy PolicyDisclaimer
• wx.awcolley.com is powered by PmWiki v.2002016 •
• all content (unless otherwise noted) © 2018 A W Colley